Impacts METAR Board
IDs:

KIAH - Houston/Bush Intl, TX, US

Updated at: 2000 UTC 13 Aug 2020
Potential Impact None Slight Moderate High
Time 13/08Z 13/09Z 13/10Z 13/11Z 13/12Z 13/13Z 13/14Z 13/15Z 13/16Z 13/17Z 13/18Z 13/19Z 13/20Z
Temp82 81 80 80 77 82 85 88 91 93 95 95 97
Dewpt75 75 75 76 75 77 77 75 75 74 73 70 71
Altim29.97 29.96 29.95 29.96 29.98 29.99 30.00 30.00 30.01 30.01 29.99 29.96 29.93
VIS10 10 10 10 10 10 10 10 10 10 10 10 10
CIG-- -- -- -- -- -- -- -- -- -- -- -- --
CoverSCTFEWFEWFEWFEWSCTFEWFEWFEWFEWFEWFEWFEW
FltCatVFRVFRVFRVFRVFRVFRVFRVFRVFRVFRVFRVFRVFR
WX--------------------------
WDir1801901902001800210200230270250170170
WSpd3 4 3 3 3 0 7 4 6 7 4 5 7
WGst-- -- -- -- -- -- -- -- -- -- -- -- --
R08/26
XWnd -3 -4 -3 -3 -3 VRB -6 -4 -4 -0 -1 -5 -7
HWnd 0 -1 -1 -1 0 VRB -4 -1 -5 -7 -4 1 1
R09/27
XWnd -3 -4 -3 -3 -3 VRB -6 -4 -4 -0 -1 -5 -7
HWnd 0 -1 -1 -1 0 VRB -4 -1 -5 -7 -4 1 1
R15/33
XWnd -1 -2 -2 -2 -1 VRB -6 -3 -6 -6 -4 -2 -2
HWnd 3 3 2 2 3 VRB 4 3 1 -3 -1 5 7
Raw hourly METARs
KIAH 130753Z 18003KT 10SM SCT250 28/24 A2997 RMK AO2 SLP146 T02780239
KIAH 130853Z 19004KT 10SM FEW250 27/24 A2996 RMK AO2 SLP145 T02720239 58002
KIAH 130953Z 19003KT 10SM FEW250 27/24 A2995 RMK AO2 SLP142 T02670239
KIAH 131053Z 20003KT 10SM FEW020 27/24 A2996 RMK AO2 SLP143 T02670244
KIAH 131153Z 18003KT 10SM FEW250 25/24 A2998 RMK AO2 SLP149 T02500239 10283 20250 53004
KIAH 131253Z 00000KT 10SM SCT250 28/25 A2999 RMK AO2 SLP154 T02780250
KIAH 131353Z 21007KT 10SM FEW020 FEW250 29/25 A3000 RMK AO2 SLP157 T02940250
KIAH 131453Z 20004KT 10SM FEW025 FEW250 31/24 A3000 RMK AO2 SLP159 T03110239 51009
KIAH 131553Z 23006KT 10SM FEW030 33/24 A3001 RMK AO2 SLP160 T03280239
KIAH 131653Z 27007KT 10SM FEW040 34/23 A3001 RMK AO2 SLP161 T03390233
KIAH 131753Z 25004KT 10SM FEW045 35/23 A2999 RMK AO2 SLP153 T03500228 10350 20250 58006
KIAH 131853Z 17005KT 10SM FEW050 35/21 A2996 RMK AO2 SLP144 T03500211
KIAH 131953Z 17007KT 10SM FEW055 36/22 A2993 RMK AO2 SLP134 T03610217



Page loaded:  20:54 UTC  |   01:54 PM Pacific  |   02:54 PM Mountain  |   03:54 PM Central  |   04:54 PM Eastern

 

ADVISORIES

FORECASTS

FORECASTS

OBSERVATIONS

USER TOOLS

ABOUT US